Frankfort, MI

6:19 AM EDT on May 27, 2015 (GMT -0400)
Crystal Lake Pinecrest | | Change Station
CLOSE
Current Station
Personal Weather Station
Location: Beulah, MI
Elevation: 607 ft
Nearby Weather Stations

Elev 607 ft 44.66 °N, 86.14 °W | Updated 9 minutes ago

Overcast
Overcast
58.8 °F
Feels Like 58.8 °F
N
10.1
Wind Variable Wind from WSW
Gusts 13.0 mph

Today
High -- | Low -- °F
--% Chance of Precip.
Yesterday
High -- | Low -- °F
Precip. -- in
6:06 AM 9:18 PM
Waxing Gibbous, 66% visible
Pressure 29.74 in
Visibility 10.0 miles
Clouds Overcast 1800 ft
Dew Point 56 °F
Humidity 89%
Rainfall 0.00 in
Snow Depth Not available.
UV 0 out of 12
Pollen 9.30 out of 12
Air Quality Not available.
Flu Activity Sporadic
METAR KFKS 270956Z AUTO 20015G27KT 10SM OVC018 15/11 A2974 RMK AO2 T01520109

More Conditions Fewer Conditions

Pressure 29.74 in
Visibility 10.0 miles
Clouds Overcast 1800 ft
Dew Point 56 °F
Humidity 89%
Rainfall 0.00 in
Snow Depth Not available.
UV 0 out of 12
Pollen 9.30 out of 12
Air Quality Not available.
Flu Activity Sporadic
METAR KFKS 270956Z AUTO 20015G27KT 10SM OVC018 15/11 A2974 RMK AO2 T01520109

More Conditions Fewer Conditions

Nowcast | as of 6:00 am EDT on May 27, 2015

At 7 am...partly cloudy. Temperature 60. Southwest winds 15 mph. At 9 am...mostly cloudy. Temperature 61. Southwest winds 14 mph. At 11 am...mostly cloudy. Chance of showers. Temperature 61. Southwest winds 14 mph. At 1 PM...cloudy. Chance of showers. Temperature 62. Southwest winds 12 mph.

×

10-Day Weather Forecast

Almanac

Astronomy

May. 27, 2015 Rise Set
Actual Time
Civil Twilight
Nautical Twilight
Astronomical Twilight
Moon
Length of Visible Light
Length of Day
Tomorrow will be .
, % of the Moon is Illuminated

Today's Extremes

State Highs State Lows

Community

WunderPhotos

Upload Photos

1,824,635 photos uploaded!

WunderBlogs® & News

Nearby

Air Quality

  Air Quality AQ Index Pollutant
Not available.

Snow Depth

Station Depth Elevation

Earthquake Activity

City Distance Mag. Time & Date
Minimum magnitude displayed is 2.5.

Coastal Water Temperatures

Place Temperature

Stations

Nearby Weather Stations

Station Location Temp. Windchill Dew Point Humidity Wind Precip. Elev Updated Type